sensor_id;sensor_type;location;lat;lon;timestamp;pressure;altitude;pressure_sealevel;temperature;humidity
13767;BME280;47980;48.794;9.176;2023-02-28T00:01:25;98936.72;;;-0.53;59.94
13767;BME280;47980;48.794;9.176;2023-02-28T00:03:57;98937.75;;;-0.66;59.80
13767;BME280;47980;48.794;9.176;2023-02-28T00:06:29;98943.63;;;-0.59;60.61
13767;BME280;47980;48.794;9.176;2023-02-28T00:09:00;98940.47;;;-0.61;60.20
13767;BME280;47980;48.794;9.176;2023-02-28T00:11:32;98937.25;;;-0.39;60.19
13767;BME280;47980;48.794;9.176;2023-02-28T00:14:04;98943.00;;;-0.37;60.09
13767;BME280;47980;48.794;9.176;2023-02-28T00:16:37;98926.44;;;-0.31;59.24
13767;BME280;47980;48.794;9.176;2023-02-28T00:19:08;98939.06;;;-0.52;60.20
13767;BME280;47980;48.794;9.176;2023-02-28T00:21:40;98934.94;;;-0.64;61.13
13767;BME280;47980;48.794;9.176;2023-02-28T00:24:13;98938.94;;;-0.45;61.18
13767;BME280;47980;48.794;9.176;2023-02-28T00:26:44;98934.91;;;-0.53;60.57
13767;BME280;47980;48.794;9.176;2023-02-28T00:29:16;98931.53;;;-0.65;60.78
13767;BME280;47980;48.794;9.176;2023-02-28T00:31:49;98935.16;;;-0.66;61.34
13767;BME280;47980;48.794;9.176;2023-02-28T00:34:21;98937.38;;;-0.46;60.93
13767;BME280;47980;48.794;9.176;2023-02-28T00:36:52;98930.94;;;-0.55;61.28
13767;BME280;47980;48.794;9.176;2023-02-28T00:39:24;98937.75;;;-0.54;61.52
13767;BME280;47980;48.794;9.176;2023-02-28T00:41:56;98932.63;;;-0.49;61.18
13767;BME280;47980;48.794;9.176;2023-02-28T00:44:28;98933.81;;;-0.68;61.40
13767;BME280;47980;48.794;9.176;2023-02-28T00:47:01;98932.63;;;-0.49;61.37
13767;BME280;47980;48.794;9.176;2023-02-28T00:49:32;98932.88;;;-0.62;61.84
13767;BME280;47980;48.794;9.176;2023-02-28T00:52:04;98936.41;;;-0.80;62.14
13767;BME280;47980;48.794;9.176;2023-02-28T00:54:36;98933.47;;;-0.72;62.35
13767;BME280;47980;48.794;9.176;2023-02-28T00:57:07;98941.69;;;-0.52;62.12
13767;BME280;47980;48.794;9.176;2023-02-28T00:59:39;98930.84;;;-0.60;62.11
13767;BME280;47980;48.794;9.176;2023-02-28T01:02:12;98934.47;;;-0.61;62.42
13767;BME280;47980;48.794;9.176;2023-02-28T01:04:44;98929.69;;;-0.53;62.29
13767;BME280;47980;48.794;9.176;2023-02-28T01:07:15;98932.38;;;-0.88;63.26
13767;BME280;47980;48.794;9.176;2023-02-28T01:09:47;98931.53;;;-0.65;62.78
13767;BME280;47980;48.794;9.176;2023-02-28T01:12:18;98926.91;;;-0.75;63.22
13767;BME280;47980;48.794;9.176;2023-02-28T01:14:50;98929.75;;;-0.88;63.75
13767;BME280;47980;48.794;9.176;2023-02-28T01:17:23;98926.13;;;-0.75;64.07
13767;BME280;47980;48.794;9.176;2023-02-28T01:19:55;98921.94;;;-0.76;64.38
13767;BME280;47980;48.794;9.176;2023-02-28T01:22:26;98924.53;;;-0.64;63.58
13767;BME280;47980;48.794;9.176;2023-02-28T01:24:58;98928.72;;;-0.75;64.15
13767;BME280;47980;48.794;9.176;2023-02-28T01:27:29;98924.53;;;-0.64;63.86
13767;BME280;47980;48.794;9.176;2023-02-28T01:30:01;98925.44;;;-0.70;63.98
13767;BME280;47980;48.794;9.176;2023-02-28T01:32:34;98928.84;;;-0.82;64.64
13767;BME280;47980;48.794;9.176;2023-02-28T01:35:06;98921.19;;;-1.00;65.04
13767;BME280;47980;48.794;9.176;2023-02-28T01:37:38;98929.28;;;-0.73;65.34
13767;BME280;47980;48.794;9.176;2023-02-28T01:40:11;98928.53;;;-0.97;65.32
13767;BME280;47980;48.794;9.176;2023-02-28T01:42:42;98932.28;;;-0.93;65.56
13767;BME280;47980;48.794;9.176;2023-02-28T01:45:22;98921.09;;;-0.53;64.74
13767;BME280;47980;48.794;9.176;2023-02-28T01:48:00;98922.41;;;-0.79;65.96
13767;BME280;47980;48.794;9.176;2023-02-28T01:50:35;98916.25;;;-0.73;65.58
13767;BME280;47980;48.794;9.176;2023-02-28T01:53:11;98918.84;;;-0.73;65.76
13767;BME280;47980;48.794;9.176;2023-02-28T01:55:47;98917.41;;;-0.69;65.73
13767;BME280;47980;48.794;9.176;2023-02-28T01:58:20;98916.13;;;-0.66;65.28
13767;BME280;47980;48.794;9.176;2023-02-28T02:00:52;98913.47;;;-0.83;66.77
13767;BME280;47980;48.794;9.176;2023-02-28T02:03:25;98906.16;;;-0.69;66.83
13767;BME280;47980;48.794;9.176;2023-02-28T02:05:57;98910.66;;;-0.53;65.86
13767;BME280;47980;48.794;9.176;2023-02-28T02:08:29;98913.78;;;-0.68;66.00
13767;BME280;47980;48.794;9.176;2023-02-28T02:11:01;98898.97;;;-0.79;66.48
13767;BME280;47980;48.794;9.176;2023-02-28T02:13:42;98909.16;;;-0.89;68.01
13767;BME280;47980;48.794;9.176;2023-02-28T02:16:25;98915.00;;;-0.70;67.51
13767;BME280;47980;48.794;9.176;2023-02-28T02:19:08;98902.81;;;-0.82;68.16
13767;BME280;47980;48.794;9.176;2023-02-28T02:25:13;98888.88;;;-0.87;67.81
13767;BME280;47980;48.794;9.176;2023-02-28T02:31:06;98877.94;;;-0.89;69.42
13767;BME280;47980;48.794;9.176;2023-02-28T02:36:53;98887.59;;;-0.61;68.23
13767;BME280;47980;48.794;9.176;2023-02-28T02:39:38;98887.47;;;-0.66;68.40
13767;BME280;47980;48.794;9.176;2023-02-28T02:42:19;98890.91;;;-0.78;68.49
13767;BME280;47980;48.794;9.176;2023-02-28T02:44:56;98891.47;;;-0.76;69.27
13767;BME280;47980;48.794;9.176;2023-02-28T02:47:31;98879.56;;;-0.71;68.60
13767;BME280;47980;48.794;9.176;2023-02-28T02:50:05;98885.91;;;-0.67;69.20
13767;BME280;47980;48.794;9.176;2023-02-28T02:52:42;98884.66;;;-0.77;68.84
13767;BME280;47980;48.794;9.176;2023-02-28T02:55:17;98880.00;;;-0.63;69.69
13767;BME280;47980;48.794;9.176;2023-02-28T02:57:52;98886.28;;;-0.87;70.09
13767;BME280;47980;48.794;9.176;2023-02-28T03:00:27;98880.50;;;-0.78;70.14
13767;BME280;47980;48.794;9.176;2023-02-28T03:03:01;98882.06;;;-0.77;70.13
13767;BME280;47980;48.794;9.176;2023-02-28T03:05:35;98888.78;;;-0.92;70.85
13767;BME280;47980;48.794;9.176;2023-02-28T03:08:12;98883.66;;;-0.76;70.68
13767;BME280;47980;48.794;9.176;2023-02-28T03:10:46;98893.38;;;-0.71;71.06
13767;BME280;47980;48.794;9.176;2023-02-28T03:13:47;98887.72;;;-0.68;71.24
13767;BME280;47980;48.794;9.176;2023-02-28T03:16:31;98893.97;;;-0.69;71.20
13767;BME280;47980;48.794;9.176;2023-02-28T03:19:17;98880.38;;;-0.71;70.83
13767;BME280;47980;48.794;9.176;2023-02-28T03:22:11;98888.00;;;-0.53;70.22
13767;BME280;47980;48.794;9.176;2023-02-28T03:24:50;98888.19;;;-0.42;69.87
13767;BME280;47980;48.794;9.176;2023-02-28T03:27:27;98886.84;;;-0.45;70.37
13767;BME280;47980;48.794;9.176;2023-02-28T03:30:03;98892.09;;;-0.57;70.14
13767;BME280;47980;48.794;9.176;2023-02-28T03:32:38;98891.03;;;-0.73;71.87
13767;BME280;47980;48.794;9.176;2023-02-28T03:35:16;98895.63;;;-0.63;72.03
13767;BME280;47980;48.794;9.176;2023-02-28T03:37:53;98884.88;;;-0.38;71.16
13767;BME280;47980;48.794;9.176;2023-02-28T03:40:32;98882.78;;;-0.53;71.57
13767;BME280;47980;48.794;9.176;2023-02-28T03:43:12;98881.72;;;-0.68;72.64
13767;BME280;47980;48.794;9.176;2023-02-28T03:45:46;98889.28;;;-0.67;72.51
13767;BME280;47980;48.794;9.176;2023-02-28T03:48:23;98884.34;;;-0.80;72.97
13767;BME280;47980;48.794;9.176;2023-02-28T03:50:58;98881.94;;;-0.70;72.32
13767;BME280;47980;48.794;9.176;2023-02-28T03:53:33;98894.41;;;-0.72;72.86
13767;BME280;47980;48.794;9.176;2023-02-28T03:56:12;98880.13;;;-0.69;72.58
13767;BME280;47980;48.794;9.176;2023-02-28T03:58:49;98884.34;;;-0.68;72.92
13767;BME280;47980;48.794;9.176;2023-02-28T04:01:25;98881.41;;;-0.43;72.00
13767;BME280;47980;48.794;9.176;2023-02-28T04:03:59;98883.50;;;-0.57;72.38
13767;BME280;47980;48.794;9.176;2023-02-28T04:06:32;98888.56;;;-0.51;71.84
13767;BME280;47980;48.794;9.176;2023-02-28T04:09:08;98887.69;;;-0.56;72.32
13767;BME280;47980;48.794;9.176;2023-02-28T04:11:42;98890.88;;;-0.37;72.50
13767;BME280;47980;48.794;9.176;2023-02-28T04:14:15;98893.91;;;-0.29;71.60
13767;BME280;47980;48.794;9.176;2023-02-28T04:16:47;98894.25;;;-0.08;71.34
13767;BME280;47980;48.794;9.176;2023-02-28T04:19:19;98891.16;;;-0.22;70.60
13767;BME280;47980;48.794;9.176;2023-02-28T04:21:52;98886.06;;;-0.45;71.68
13767;BME280;47980;48.794;9.176;2023-02-28T04:24:25;98886.09;;;-0.29;71.84
13767;BME280;47980;48.794;9.176;2023-02-28T04:26:58;98885.53;;;-0.59;72.74
13767;BME280;47980;48.794;9.176;2023-02-28T04:29:31;98888.75;;;-0.40;72.28
13767;BME280;47980;48.794;9.176;2023-02-28T04:32:03;98878.47;;;-0.47;72.15
13767;BME280;47980;48.794;9.176;2023-02-28T04:34:35;98892.97;;;-0.51;72.62
13767;BME280;47980;48.794;9.176;2023-02-28T04:37:07;98888.47;;;-0.27;71.52
13767;BME280;47980;48.794;9.176;2023-02-28T04:39:38;98880.00;;;-0.34;71.67
13767;BME280;47980;48.794;9.176;2023-02-28T04:42:12;98883.50;;;-0.12;71.66
13767;BME280;47980;48.794;9.176;2023-02-28T04:44:44;98881.75;;;-0.52;71.61
13767;BME280;47980;48.794;9.176;2023-02-28T04:47:17;98881.75;;;-0.40;72.66
13767;BME280;47980;48.794;9.176;2023-02-28T04:49:48;98884.03;;;-0.27;71.80
13767;BME280;47980;48.794;9.176;2023-02-28T04:52:20;98881.22;;;-0.25;71.53
13767;BME280;47980;48.794;9.176;2023-02-28T04:54:52;98886.25;;;-0.35;72.35
13767;BME280;47980;48.794;9.176;2023-02-28T04:57:25;98890.41;;;-0.34;72.59
13767;BME280;47980;48.794;9.176;2023-02-28T04:59:57;98884.59;;;-0.25;71.17
13767;BME280;47980;48.794;9.176;2023-02-28T05:02:28;98894.38;;;-0.32;72.17
13767;BME280;47980;48.794;9.176;2023-02-28T05:05:00;98887.81;;;-0.34;72.35
13767;BME280;47980;48.794;9.176;2023-02-28T05:07:32;98884.56;;;-0.41;72.73
13767;BME280;47980;48.794;9.176;2023-02-28T05:10:04;98900.72;;;-0.28;72.99
13767;BME280;47980;48.794;9.176;2023-02-28T05:12:37;98883.91;;;-0.20;72.52
13767;BME280;47980;48.794;9.176;2023-02-28T05:15:12;98891.72;;;-0.20;72.09
13767;BME280;47980;48.794;9.176;2023-02-28T05:17:44;98883.44;;;-0.17;71.73
13767;BME280;47980;48.794;9.176;2023-02-28T05:20:16;98884.28;;;-0.11;71.71
13767;BME280;47980;48.794;9.176;2023-02-28T05:22:49;98885.00;;;-0.16;71.98
13767;BME280;47980;48.794;9.176;2023-02-28T05:25:21;98890.50;;;-0.29;72.81
13767;BME280;47980;48.794;9.176;2023-02-28T05:27:54;98890.28;;;-0.28;73.20
13767;BME280;47980;48.794;9.176;2023-02-28T05:30:25;98885.56;;;-0.14;72.28
13767;BME280;47980;48.794;9.176;2023-02-28T05:32:58;98890.53;;;-0.12;72.63
13767;BME280;47980;48.794;9.176;2023-02-28T05:35:29;98886.69;;;0.07;71.67
13767;BME280;47980;48.794;9.176;2023-02-28T05:38:02;98895.84;;;-0.07;72.12
13767;BME280;47980;48.794;9.176;2023-02-28T05:40:34;98894.41;;;-0.15;71.68
13767;BME280;47980;48.794;9.176;2023-02-28T05:43:10;98898.09;;;-0.28;72.74
13767;BME280;47980;48.794;9.176;2023-02-28T05:45:41;98901.03;;;-0.24;72.24
13767;BME280;47980;48.794;9.176;2023-02-28T05:48:13;98895.09;;;-0.19;72.14
13767;BME280;47980;48.794;9.176;2023-02-28T05:50:45;98898.16;;;-0.39;73.22
13767;BME280;47980;48.794;9.176;2023-02-28T05:53:17;98912.00;;;-0.22;72.83
13767;BME280;47980;48.794;9.176;2023-02-28T05:55:48;98900.56;;;-0.21;73.05
13767;BME280;47980;48.794;9.176;2023-02-28T05:58:21;98918.03;;;-0.21;72.71
13767;BME280;47980;48.794;9.176;2023-02-28T06:00:53;98905.59;;;-0.31;73.50
13767;BME280;47980;48.794;9.176;2023-02-28T06:03:25;98908.38;;;-0.21;72.87
13767;BME280;47980;48.794;9.176;2023-02-28T06:05:57;98907.16;;;-0.30;74.19
13767;BME280;47980;48.794;9.176;2023-02-28T06:08:28;98896.03;;;-0.26;72.72
13767;BME280;47980;48.794;9.176;2023-02-28T06:11:02;98901.72;;;0.00;71.99
13767;BME280;47980;48.794;9.176;2023-02-28T06:13:35;98904.59;;;-0.13;72.91
13767;BME280;47980;48.794;9.176;2023-02-28T06:16:08;98909.75;;;-0.02;72.28
13767;BME280;47980;48.794;9.176;2023-02-28T06:18:41;98916.41;;;-0.11;73.13
13767;BME280;47980;48.794;9.176;2023-02-28T06:21:13;98905.41;;;-0.13;72.48
13767;BME280;47980;48.794;9.176;2023-02-28T06:23:45;98911.66;;;-0.14;72.92
13767;BME280;47980;48.794;9.176;2023-02-28T06:26:17;98913.53;;;-0.38;73.26
13767;BME280;47980;48.794;9.176;2023-02-28T06:28:50;98924.72;;;-0.26;73.06
13767;BME280;47980;48.794;9.176;2023-02-28T06:31:22;98916.75;;;-0.19;73.11
13767;BME280;47980;48.794;9.176;2023-02-28T06:33:55;98919.78;;;0.07;72.83
13767;BME280;47980;48.794;9.176;2023-02-28T06:36:27;98931.00;;;-0.10;72.42
13767;BME280;47980;48.794;9.176;2023-02-28T06:38:59;98936.94;;;-0.14;73.16
13767;BME280;47980;48.794;9.176;2023-02-28T06:41:30;98933.00;;;0.00;71.51
13767;BME280;47980;48.794;9.176;2023-02-28T06:44:13;98939.72;;;0.13;70.84
13767;BME280;47980;48.794;9.176;2023-02-28T06:46:45;98934.34;;;0.03;72.01
13767;BME280;47980;48.794;9.176;2023-02-28T06:49:17;98930.63;;;-0.02;71.75
13767;BME280;47980;48.794;9.176;2023-02-28T06:51:49;98930.66;;;0.15;70.79
13767;BME280;47980;48.794;9.176;2023-02-28T06:54:20;98941.25;;;0.26;70.34
13767;BME280;47980;48.794;9.176;2023-02-28T06:56:52;98940.94;;;0.22;70.74
13767;BME280;47980;48.794;9.176;2023-02-28T06:59:26;98946.13;;;0.05;71.11
13767;BME280;47980;48.794;9.176;2023-02-28T07:01:58;98935.94;;;0.20;70.74
13767;BME280;47980;48.794;9.176;2023-02-28T07:04:30;98946.00;;;-0.17;71.56
13767;BME280;47980;48.794;9.176;2023-02-28T07:07:01;98949.84;;;0.09;70.82
13767;BME280;47980;48.794;9.176;2023-02-28T07:09:33;98957.09;;;0.07;70.75
13767;BME280;47980;48.794;9.176;2023-02-28T07:12:05;98951.38;;;0.22;70.66
13767;BME280;47980;48.794;9.176;2023-02-28T07:14:38;98951.09;;;0.07;71.04
13767;BME280;47980;48.794;9.176;2023-02-28T07:17:10;98955.00;;;0.21;70.35
13767;BME280;47980;48.794;9.176;2023-02-28T07:19:42;98954.44;;;0.36;70.38
13767;BME280;47980;48.794;9.176;2023-02-28T07:22:13;98956.69;;;0.44;69.99
13767;BME280;47980;48.794;9.176;2023-02-28T07:24:45;98954.13;;;0.32;70.23
13767;BME280;47980;48.794;9.176;2023-02-28T07:27:26;98952.31;;;0.50;69.68
13767;BME280;47980;48.794;9.176;2023-02-28T07:30:02;98954.84;;;0.28;69.82
13767;BME280;47980;48.794;9.176;2023-02-28T07:32:34;98957.78;;;0.48;69.28
13767;BME280;47980;48.794;9.176;2023-02-28T07:35:08;98951.94;;;0.41;69.36
13767;BME280;47980;48.794;9.176;2023-02-28T07:37:40;98955.88;;;0.60;68.65
13767;BME280;47980;48.794;9.176;2023-02-28T07:40:12;98960.72;;;0.52;68.79
13767;BME280;47980;48.794;9.176;2023-02-28T07:42:44;98965.69;;;0.53;69.43
13767;BME280;47980;48.794;9.176;2023-02-28T07:45:17;98965.16;;;0.51;69.28
13767;BME280;47980;48.794;9.176;2023-02-28T07:47:49;98959.44;;;0.54;68.75
13767;BME280;47980;48.794;9.176;2023-02-28T07:50:21;98973.78;;;0.52;68.49
13767;BME280;47980;48.794;9.176;2023-02-28T07:52:53;98962.53;;;0.51;69.37
13767;BME280;47980;48.794;9.176;2023-02-28T07:55:24;98972.91;;;0.63;67.85
13767;BME280;47980;48.794;9.176;2023-02-28T07:57:56;98975.97;;;0.60;69.17
13767;BME280;47980;48.794;9.176;2023-02-28T08:00:29;98967.66;;;0.46;68.52
13767;BME280;47980;48.794;9.176;2023-02-28T08:03:02;98965.38;;;0.50;68.31
13767;BME280;47980;48.794;9.176;2023-02-28T08:05:38;98974.47;;;0.47;68.85
13767;BME280;47980;48.794;9.176;2023-02-28T08:08:10;98974.22;;;0.82;68.51
13767;BME280;47980;48.794;9.176;2023-02-28T08:10:43;98978.81;;;0.75;67.96
13767;BME280;47980;48.794;9.176;2023-02-28T08:13:15;98975.56;;;0.68;68.07
13767;BME280;47980;48.794;9.176;2023-02-28T08:15:48;98979.69;;;0.64;68.35
13767;BME280;47980;48.794;9.176;2023-02-28T08:18:19;98987.91;;;1.06;67.95
13767;BME280;47980;48.794;9.176;2023-02-28T08:20:51;98980.75;;;1.02;67.78
13767;BME280;47980;48.794;9.176;2023-02-28T08:23:22;98982.91;;;1.05;67.61
13767;BME280;47980;48.794;9.176;2023-02-28T08:25:54;98974.31;;;1.26;66.17
13767;BME280;47980;48.794;9.176;2023-02-28T08:28:26;98975.63;;;0.90;66.29
13767;BME280;47980;48.794;9.176;2023-02-28T08:30:59;98977.50;;;1.28;66.37
13767;BME280;47980;48.794;9.176;2023-02-28T08:33:31;98977.47;;;1.06;67.63
13767;BME280;47980;48.794;9.176;2023-02-28T08:36:03;98973.34;;;0.93;66.26
13767;BME280;47980;48.794;9.176;2023-02-28T08:38:35;98982.53;;;0.79;66.70
13767;BME280;47980;48.794;9.176;2023-02-28T08:41:08;98978.47;;;1.44;65.92
13767;BME280;47980;48.794;9.176;2023-02-28T08:43:40;98977.75;;;1.10;65.87
13767;BME280;47980;48.794;9.176;2023-02-28T08:46:13;98988.06;;;1.00;66.10
13767;BME280;47980;48.794;9.176;2023-02-28T08:48:45;98979.03;;;0.90;64.62
13767;BME280;47980;48.794;9.176;2023-02-28T08:51:17;98986.34;;;0.88;64.44
13767;BME280;47980;48.794;9.176;2023-02-28T08:53:53;98989.91;;;0.82;65.27
13767;BME280;47980;48.794;9.176;2023-02-28T08:56:26;98990.84;;;0.76;64.72
13767;BME280;47980;48.794;9.176;2023-02-28T08:58:57;99000.66;;;0.86;nan
13767;BME280;47980;48.794;9.176;2023-02-28T09:01:30;98998.34;;;1.06;64.60
13767;BME280;47980;48.794;9.176;2023-02-28T09:04:02;98979.09;;;1.12;63.92
13767;BME280;47980;48.794;9.176;2023-02-28T09:06:34;99004.53;;;1.39;63.35
13767;BME280;47980;48.794;9.176;2023-02-28T09:09:06;98999.06;;;1.40;62.90
13767;BME280;47980;48.794;9.176;2023-02-28T09:11:37;98996.09;;;1.54;62.41
13767;BME280;47980;48.794;9.176;2023-02-28T09:14:09;98997.19;;;1.58;62.76
13767;BME280;47980;48.794;9.176;2023-02-28T09:16:42;98996.94;;;1.59;62.25
13767;BME280;47980;48.794;9.176;2023-02-28T09:19:13;98990.72;;;1.87;61.42
13767;BME280;47980;48.794;9.176;2023-02-28T09:21:45;99004.59;;;1.66;61.51
13767;BME280;47980;48.794;9.176;2023-02-28T09:24:16;99002.06;;;1.71;61.73
13767;BME280;47980;48.794;9.176;2023-02-28T09:26:50;99003.22;;;1.80;61.35
13767;BME280;47980;48.794;9.176;2023-02-28T09:29:21;99001.84;;;2.00;61.81
13767;BME280;47980;48.794;9.176;2023-02-28T09:31:54;99016.41;;;1.90;60.59
13767;BME280;47980;48.794;9.176;2023-02-28T09:34:28;99000.13;;;1.61;60.82
13767;BME280;47980;48.794;9.176;2023-02-28T09:37:00;99007.03;;;1.73;60.93
13767;BME280;47980;48.794;9.176;2023-02-28T09:39:32;99009.06;;;1.65;61.07
13767;BME280;47980;48.794;9.176;2023-02-28T09:42:04;99009.31;;;1.86;61.33
13767;BME280;47980;48.794;9.176;2023-02-28T09:44:40;99021.91;;;1.89;60.83
13767;BME280;47980;48.794;9.176;2023-02-28T09:47:25;99012.22;;;1.89;60.89
13767;BME280;47980;48.794;9.176;2023-02-28T09:50:00;99021.13;;;2.15;60.09
13767;BME280;47980;48.794;9.176;2023-02-28T09:52:34;99019.28;;;1.89;61.17
13767;BME280;47980;48.794;9.176;2023-02-28T09:55:19;99028.31;;;2.03;59.76
13767;BME280;47980;48.794;9.176;2023-02-28T09:57:51;99021.56;;;2.34;59.88
13767;BME280;47980;48.794;9.176;2023-02-28T10:00:27;99019.81;;;2.40;58.85
13767;BME280;47980;48.794;9.176;2023-02-28T10:03:12;99016.16;;;2.46;59.36
13767;BME280;47980;48.794;9.176;2023-02-28T10:05:51;99015.94;;;2.48;59.41
13767;BME280;47980;48.794;9.176;2023-02-28T10:08:26;99023.44;;;2.66;59.21
13767;BME280;47980;48.794;9.176;2023-02-28T10:11:01;99010.94;;;2.78;57.19
13767;BME280;47980;48.794;9.176;2023-02-28T10:13:36;99027.66;;;2.40;58.52
13767;BME280;47980;48.794;9.176;2023-02-28T10:16:13;99021.47;;;2.24;58.45
13767;BME280;47980;48.794;9.176;2023-02-28T10:18:50;99034.69;;;2.12;59.08
13767;BME280;47980;48.794;9.176;2023-02-28T10:21:26;99033.66;;;2.68;58.90
13767;BME280;47980;48.794;9.176;2023-02-28T10:24:03;99033.13;;;2.38;59.24
13767;BME280;47980;48.794;9.176;2023-02-28T10:26:40;99041.38;;;2.84;58.20
13767;BME280;47980;48.794;9.176;2023-02-28T10:29:14;99043.06;;;2.69;58.65
13767;BME280;47980;48.794;9.176;2023-02-28T10:31:46;99048.88;;;3.03;57.46
13767;BME280;47980;48.794;9.176;2023-02-28T10:34:19;99035.84;;;3.18;57.03
13767;BME280;47980;48.794;9.176;2023-02-28T10:36:51;99031.94;;;3.21;56.66
13767;BME280;47980;48.794;9.176;2023-02-28T10:39:40;99034.63;;;3.31;56.02
13767;BME280;47980;48.794;9.176;2023-02-28T10:42:23;99028.50;;;3.15;57.03
13767;BME280;47980;48.794;9.176;2023-02-28T10:45:09;99022.75;;;2.81;57.70
13767;BME280;47980;48.794;9.176;2023-02-28T10:47:51;99039.63;;;3.37;57.21
13767;BME280;47980;48.794;9.176;2023-02-28T10:50:35;99024.31;;;3.19;56.63
13767;BME280;47980;48.794;9.176;2023-02-28T10:53:22;99038.63;;;3.38;55.67
13767;BME280;47980;48.794;9.176;2023-02-28T10:55:59;99030.47;;;3.40;56.60
13767;BME280;47980;48.794;9.176;2023-02-28T10:58:40;99016.88;;;3.48;55.90
13767;BME280;47980;48.794;9.176;2023-02-28T11:01:15;99022.13;;;3.48;54.85
13767;BME280;47980;48.794;9.176;2023-02-28T11:03:47;99027.34;;;3.38;56.31
13767;BME280;47980;48.794;9.176;2023-02-28T11:06:22;99024.66;;;3.28;56.46
13767;BME280;47980;48.794;9.176;2023-02-28T11:08:56;99020.41;;;3.69;56.10
13767;BME280;47980;48.794;9.176;2023-02-28T11:11:30;99016.91;;;4.31;54.37
13767;BME280;47980;48.794;9.176;2023-02-28T11:14:19;99013.22;;;4.27;53.77
13767;BME280;47980;48.794;9.176;2023-02-28T11:16:52;99013.50;;;4.36;53.52
13767;BME280;47980;48.794;9.176;2023-02-28T11:19:28;99012.22;;;4.79;53.33
13767;BME280;47980;48.794;9.176;2023-02-28T11:22:03;98998.53;;;4.88;52.90
13767;BME280;47980;48.794;9.176;2023-02-28T11:24:39;98994.34;;;4.41;53.56
13767;BME280;47980;48.794;9.176;2023-02-28T11:27:42;99007.75;;;4.80;53.65
13767;BME280;47980;48.794;9.176;2023-02-28T11:30:32;99003.00;;;4.56;53.08
13767;BME280;47980;48.794;9.176;2023-02-28T11:33:26;99005.66;;;4.51;53.73
13767;BME280;47980;48.794;9.176;2023-02-28T11:36:02;99000.66;;;4.60;52.67
13767;BME280;47980;48.794;9.176;2023-02-28T11:38:36;99003.50;;;5.10;52.11
13767;BME280;47980;48.794;9.176;2023-02-28T11:41:17;99003.03;;;4.87;52.85
13767;BME280;47980;48.794;9.176;2023-02-28T11:44:03;98993.53;;;5.01;52.56
13767;BME280;47980;48.794;9.176;2023-02-28T11:46:41;98987.72;;;5.04;51.84
13767;BME280;47980;48.794;9.176;2023-02-28T11:49:26;98998.81;;;4.76;51.96
13767;BME280;47980;48.794;9.176;2023-02-28T11:52:06;98990.38;;;4.38;53.54
13767;BME280;47980;48.794;9.176;2023-02-28T11:54:58;98983.56;;;4.78;52.63
13767;BME280;47980;48.794;9.176;2023-02-28T11:57:38;98983.56;;;4.73;53.45
13767;BME280;47980;48.794;9.176;2023-02-28T12:00:29;98980.66;;;5.00;53.20
13767;BME280;47980;48.794;9.176;2023-02-28T12:03:15;98990.28;;;5.45;52.39
13767;BME280;47980;48.794;9.176;2023-02-28T12:05:56;98990.63;;;5.13;51.73
13767;BME280;47980;48.794;9.176;2023-02-28T12:08:44;98979.31;;;5.13;52.57
13767;BME280;47980;48.794;9.176;2023-02-28T12:11:28;98976.94;;;5.16;52.32
13767;BME280;47980;48.794;9.176;2023-02-28T12:14:17;98978.53;;;5.12;51.66
13767;BME280;47980;48.794;9.176;2023-02-28T12:17:02;98967.50;;;5.00;53.10
13767;BME280;47980;48.794;9.176;2023-02-28T12:19:45;98978.22;;;5.34;52.01
13767;BME280;47980;48.794;9.176;2023-02-28T12:22:28;98971.31;;;5.48;52.27
13767;BME280;47980;48.794;9.176;2023-02-28T12:25:21;98968.72;;;5.38;51.40
13767;BME280;47980;48.794;9.176;2023-02-28T12:27:57;98966.13;;;5.28;51.02
13767;BME280;47980;48.794;9.176;2023-02-28T12:30:31;98959.16;;;5.58;51.10
13767;BME280;47980;48.794;9.176;2023-02-28T12:33:06;98963.72;;;5.37;51.48
13767;BME280;47980;48.794;9.176;2023-02-28T12:35:46;98962.84;;;5.62;51.82
13767;BME280;47980;48.794;9.176;2023-02-28T12:38:22;98952.31;;;5.62;50.29
13767;BME280;47980;48.794;9.176;2023-02-28T12:40:59;98962.25;;;5.75;51.46
13767;BME280;47980;48.794;9.176;2023-02-28T12:43:36;98955.63;;;5.83;51.21
13767;BME280;47980;48.794;9.176;2023-02-28T12:46:11;98951.78;;;5.65;49.77
13767;BME280;47980;48.794;9.176;2023-02-28T12:48:46;98947.44;;;5.89;50.14
13767;BME280;47980;48.794;9.176;2023-02-28T12:51:19;98950.00;;;6.05;50.59
13767;BME280;47980;48.794;9.176;2023-02-28T12:54:02;98951.25;;;6.17;49.81
13767;BME280;47980;48.794;9.176;2023-02-28T12:56:44;98944.00;;;5.94;50.74
13767;BME280;47980;48.794;9.176;2023-02-28T12:59:24;98941.09;;;6.35;49.88
13767;BME280;47980;48.794;9.176;2023-02-28T13:05:39;98939.88;;;6.22;49.07
13767;BME280;47980;48.794;9.176;2023-02-28T13:08:51;98941.28;;;6.09;49.59
13767;BME280;47980;48.794;9.176;2023-02-28T13:11:28;98935.94;;;6.19;50.41
13767;BME280;47980;48.794;9.176;2023-02-28T13:14:02;98943.00;;;5.79;50.39
13767;BME280;47980;48.794;9.176;2023-02-28T13:16:58;98938.63;;;6.14;50.89
13767;BME280;47980;48.794;9.176;2023-02-28T13:19:32;98929.66;;;5.71;49.89
13767;BME280;47980;48.794;9.176;2023-02-28T13:22:04;98935.66;;;5.76;50.73
13767;BME280;47980;48.794;9.176;2023-02-28T13:24:41;98936.66;;;5.96;48.90
13767;BME280;47980;48.794;9.176;2023-02-28T13:27:34;98951.63;;;6.00;49.40
13767;BME280;47980;48.794;9.176;2023-02-28T13:33:24;98927.38;;;6.03;50.05
13767;BME280;47980;48.794;9.176;2023-02-28T13:36:25;98928.88;;;6.15;49.66
13767;BME280;47980;48.794;9.176;2023-02-28T13:38:57;98931.28;;;5.57;50.68
13767;BME280;47980;48.794;9.176;2023-02-28T13:41:43;98931.66;;;5.89;50.61
13767;BME280;47980;48.794;9.176;2023-02-28T13:44:17;98921.22;;;6.13;49.52
13767;BME280;47980;48.794;9.176;2023-02-28T13:47:21;98927.44;;;6.33;50.09
13767;BME280;47980;48.794;9.176;2023-02-28T13:50:14;98946.59;;;6.38;47.88
13767;BME280;47980;48.794;9.176;2023-02-28T13:52:50;98939.63;;;5.74;49.57
13767;BME280;47980;48.794;9.176;2023-02-28T13:55:29;98931.88;;;5.98;48.84
13767;BME280;47980;48.794;9.176;2023-02-28T13:58:25;98935.72;;;6.16;49.34
13767;BME280;47980;48.794;9.176;2023-02-28T14:01:12;98929.78;;;5.95;49.13
13767;BME280;47980;48.794;9.176;2023-02-28T14:03:58;98936.66;;;5.96;49.68
13767;BME280;47980;48.794;9.176;2023-02-28T14:06:35;98918.00;;;5.82;49.15